Lakehurst NAES, Maxfield Field Lakehurst US
ICAO: KNEL
IATA: NEL
Category: Medium
Scheduled Services: No

Elevation: 101 ft
TransAlt. 18000 ft.

Airport Communications:
MC GUIRE APP/DEP:124.15
GND:118.375
MILLVILLE RDO:113.8
TWR:127.775

KNEL Zoom In..

Runways:

(A) RW 06 length 5002 ft width 150 ft
---- / hdg 62

(B) RW 15 length 5001 ft width 150 ft
---- / hdg 152

(C) RW 24 length 5002 ft width 150 ft
---- / hdg 242

(D) RW 33 length 5001 ft width 150 ft
---- / hdg 332

Location; KNEL
Day. 22 / Time. 04.00 Zulu
* Altimeter: 30.15
* Temperature: 07° c. 44.6°f.
* Wind from: 150° Speed 04 kn.
Dewpoint: 03° c.
Visibility: 10 Statute Miles.
Clouds: Overcast 5000 ft.

KNEL 220400Z AUTO 15004KT 10SM OVC050 07/03 A3015 RMK AO2 SLP210 T00720028 PNO $


Wind From 150°
Speed 04 kn.

jpsM music video
CHECK IT OUT

jpsM - It Moves..

 
jpsmedia.com for Web Design  worldairports.se 2018   terms of use